Bluewell, West Virginia
Current Conditions -  °F | °C
As of 2:00 AM on Thursday 27 Nov 2014 (Local Time) from KBLF Reporting Station
Haze Haze  
Wind Chill:   Ceiling: 6000
Heat Index:   Visibility: 0.75mi
Dew Point: -1°   Wind: 0mph
Humidity: 89%   Direction: NA
Pressure: 29.94"   Gusts: NA
Location:  37.2994°N, 81.226°W
Report Text: KBLF 270700Z AUTO 00000KT 3/4SM BR OVC060 01/M01 A2994 RMK AO2 T00061011 $
Loading
Personal Weather Stations






























Interactive Weather Map New forecast layout! Learn more

10-Day Weather Forecast

Advertisements
Track Severe Weather on mobile